createdAt,value
2022-09-05T00:00:02.758Z,19.58
2022-09-05T00:02:39.239Z,23.25
2022-09-05T00:05:00.924Z,20.90
2022-09-05T00:07:36.141Z,17.20
2022-09-05T00:10:00.871Z,18.02
2022-09-05T00:12:06.421Z,18.25
2022-09-05T00:15:15.344Z,17.80
2022-09-05T00:17:05.210Z,15.93
2022-09-05T00:23:24.214Z,15.98
2022-09-05T00:24:37.401Z,16.33
2022-09-05T00:24:50.082Z,16.90
2022-09-05T00:27:11.725Z,15.95
2022-09-05T00:29:46.487Z,16.13
2022-09-05T00:32:00.624Z,15.80
2022-09-05T00:34:19.716Z,14.90
2022-09-05T00:36:35.423Z,15.10
2022-09-05T00:38:42.944Z,16.52
2022-09-05T00:40:53.661Z,16.15
2022-09-05T00:43:03.315Z,15.65
2022-09-05T00:45:19.386Z,14.68
2022-09-05T00:47:34.723Z,14.90
2022-09-05T00:49:44.039Z,15.77
2022-09-05T00:51:54.394Z,15.40
2022-09-05T00:54:15.802Z,14.88
2022-09-05T00:56:42.461Z,14.25
2022-09-05T00:59:09.951Z,14.23
2022-09-05T01:01:28.843Z,14.45
2022-09-05T01:03:54.987Z,15.77
2022-09-05T01:06:15.280Z,14.00
2022-09-05T01:08:32.151Z,14.50
2022-09-05T01:10:43.831Z,15.30
2022-09-05T01:13:13.118Z,15.18
2022-09-05T01:15:24.960Z,15.60
2022-09-05T01:17:52.281Z,14.18
2022-09-05T01:20:19.321Z,14.77
2022-09-05T01:22:55.476Z,14.55
2022-09-05T01:25:20.793Z,15.75
2022-09-05T01:28:36.998Z,15.43
2022-09-05T01:30:19.483Z,15.32
2022-09-05T01:32:34.211Z,14.90
2022-09-05T01:34:54.471Z,15.18
2022-09-05T01:37:06.429Z,14.77
2022-09-05T01:40:12.457Z,16.35
2022-09-05T01:41:50.832Z,15.02
2022-09-05T01:44:16.159Z,15.30
2022-09-05T01:46:32.472Z,14.82
2022-09-05T01:48:50.060Z,15.05
2022-09-05T01:51:05.341Z,14.60
2022-09-05T01:53:41.153Z,15.45
2022-09-05T01:56:02.508Z,15.32
2022-09-05T01:58:18.305Z,14.20
2022-09-05T02:00:25.579Z,14.02
2022-09-05T02:02:50.393Z,14.57
2022-09-05T02:05:48.569Z,14.13
2022-09-05T02:08:35.303Z,14.55
2022-09-05T02:10:54.911Z,13.90
2022-09-05T02:13:11.547Z,15.13
2022-09-05T02:15:19.642Z,15.93
2022-09-05T02:17:50.568Z,14.95
2022-09-05T02:20:03.377Z,14.60
2022-09-05T02:22:12.455Z,14.32
2022-09-05T02:24:22.921Z,14.85
2022-09-05T02:26:34.488Z,14.25
2022-09-05T02:28:51.135Z,13.80
2022-09-05T02:31:20.158Z,13.90
2022-09-05T02:33:32.069Z,14.55
2022-09-05T02:35:45.961Z,13.95
2022-09-05T02:39:02.525Z,14.18
2022-09-05T02:45:02.496Z,13.20
2022-09-05T02:45:18.878Z,13.85
2022-09-05T02:45:33.849Z,13.30
2022-09-05T02:47:43.951Z,13.07
2022-09-05T02:57:33.491Z,12.77
2022-09-05T02:57:37.620Z,12.82
2022-09-05T02:58:07.115Z,13.30
2022-09-05T03:00:11.762Z,13.10
2022-09-05T03:02:25.959Z,13.27
2022-09-05T03:04:38.743Z,12.70
2022-09-05T03:06:59.564Z,12.07
2022-09-05T03:09:33.871Z,11.75
2022-09-05T03:12:29.969Z,13.10
2022-09-05T03:15:22.528Z,11.48
2022-09-05T03:17:53.587Z,11.65
2022-09-05T03:20:34.695Z,16.48
2022-09-05T03:23:11.232Z,15.02
2022-09-05T03:25:42.008Z,15.88
2022-09-05T03:28:12.160Z,15.43
2022-09-05T03:30:18.868Z,15.15
2022-09-05T03:33:05.860Z,15.52
2022-09-05T03:35:47.646Z,16.85
2022-09-05T03:38:29.368Z,15.93
2022-09-05T03:41:08.358Z,15.00
2022-09-05T03:43:55.505Z,14.98
2022-09-05T03:46:10.956Z,12.65
2022-09-05T03:48:55.425Z,12.95
2022-09-05T03:57:07.616Z,14.05
2022-09-05T03:57:11.362Z,14.52
2022-09-05T03:57:16.383Z,15.80
2022-09-05T04:00:02.694Z,18.42
2022-09-05T04:03:26.989Z,16.00
2022-09-05T04:08:08.891Z,16.58
2022-09-05T04:08:28.344Z,15.35
2022-09-05T04:09:53.494Z,14.80
2022-09-05T04:12:03.436Z,13.95
2022-09-05T04:16:18.599Z,14.90
2022-09-05T04:18:33.804Z,14.30
2022-09-05T04:20:45.558Z,12.90
2022-09-05T04:23:09.554Z,13.45
2022-09-05T04:25:25.523Z,14.60
2022-09-05T04:27:39.255Z,13.13
2022-09-05T04:29:58.650Z,13.18
2022-09-05T04:32:18.618Z,12.32
2022-09-05T04:34:51.093Z,13.32
2022-09-05T04:37:04.106Z,12.82
2022-09-05T04:39:24.668Z,13.05
2022-09-05T04:41:39.410Z,14.05
2022-09-05T04:43:48.489Z,13.88
2022-09-05T04:45:57.427Z,13.63
2022-09-05T04:48:03.981Z,12.90
2022-09-05T04:50:15.003Z,13.82
2022-09-05T04:53:00.363Z,12.88
2022-09-05T04:55:09.694Z,12.95
2022-09-05T04:57:23.776Z,13.65
2022-09-05T05:05:58.267Z,13.55
2022-09-05T05:06:14.284Z,13.98
2022-09-05T05:06:17.344Z,13.52
2022-09-05T05:07:06.124Z,14.55
2022-09-05T05:09:20.058Z,14.52
2022-09-05T05:17:59.476Z,13.43
2022-09-05T05:18:07.220Z,11.75
2022-09-05T05:18:15.637Z,12.95
2022-09-05T05:19:21.971Z,11.68
2022-09-05T05:21:28.965Z,11.65
2022-09-05T05:23:38.314Z,11.38
2022-09-05T05:25:50.137Z,12.20
2022-09-05T05:28:09.830Z,13.30
2022-09-05T05:30:32.421Z,12.52
2022-09-05T05:32:46.005Z,11.35
2022-09-05T05:34:56.209Z,10.65
2022-09-05T05:37:06.356Z,10.95
2022-09-05T05:39:15.661Z,12.18
2022-09-05T05:41:24.514Z,11.43
2022-09-05T05:43:31.435Z,11.97
2022-09-05T05:45:38.389Z,11.38
2022-09-05T05:47:45.743Z,11.18
2022-09-05T05:50:01.195Z,10.15
2022-09-05T05:52:30.998Z,9.98
2022-09-05T05:54:43.710Z,10.30
2022-09-05T05:57:10.141Z,10.60
2022-09-05T05:59:56.785Z,10.02
2022-09-05T06:02:35.247Z,10.60
2022-09-05T06:05:05.795Z,10.50
2022-09-05T06:07:19.347Z,10.00
2022-09-05T06:14:53.093Z,10.20
2022-09-05T06:14:59.827Z,10.32
2022-09-05T06:15:55.778Z,9.60
2022-09-05T06:18:45.738Z,9.38
2022-09-05T06:22:11.423Z,9.57
2022-09-05T06:24:24.442Z,9.32
2022-09-05T06:26:58.622Z,9.65
2022-09-05T06:29:13.667Z,9.95
2022-09-05T06:31:35.568Z,10.70
2022-09-05T06:33:54.556Z,10.60
2022-09-05T06:36:14.364Z,11.77
2022-09-05T06:40:39.184Z,11.00
2022-09-05T06:43:21.459Z,10.32
2022-09-05T06:45:39.378Z,9.88
2022-09-05T06:47:46.564Z,8.93
2022-09-05T06:50:26.735Z,8.85
2022-09-05T06:53:21.164Z,8.75
2022-09-05T06:55:58.021Z,7.00
2022-09-05T06:58:38.323Z,8.25
2022-09-05T07:00:47.914Z,8.32
2022-09-05T07:03:20.127Z,7.00
2022-09-05T07:05:42.511Z,6.57
2022-09-05T07:07:54.485Z,5.85
2022-09-05T07:10:16.932Z,6.13
2022-09-05T07:12:33.564Z,5.70
2022-09-05T07:14:51.109Z,5.78
2022-09-05T07:16:58.789Z,5.65
2022-09-05T07:19:08.801Z,5.30
2022-09-05T07:21:26.513Z,4.95
2022-09-05T07:24:08.927Z,5.00
2022-09-05T07:26:13.259Z,6.00
2022-09-05T07:28:42.471Z,5.53
2022-09-05T07:30:53.914Z,4.43
2022-09-05T07:33:00.584Z,4.72
2022-09-05T07:35:07.360Z,4.28
2022-09-05T07:37:20.327Z,4.90
2022-09-05T07:39:29.337Z,4.72
2022-09-05T07:41:39.711Z,4.93
2022-09-05T07:43:47.555Z,4.55
2022-09-05T07:46:11.851Z,4.50
2022-09-05T07:48:23.104Z,4.90
2022-09-05T07:56:54.921Z,4.72
2022-09-05T07:56:59.384Z,5.55
2022-09-05T07:56:59.389Z,4.60
2022-09-05T07:58:13.332Z,4.50
2022-09-05T08:00:26.873Z,4.65
2022-09-05T08:02:34.794Z,4.55
2022-09-05T08:04:42.024Z,4.43
2022-09-05T08:07:46.547Z,5.80
2022-09-05T08:09:59.570Z,5.28
2022-09-05T08:11:48.262Z,4.50
2022-09-05T08:14:06.635Z,4.35
2022-09-05T08:16:25.900Z,4.38
2022-09-05T08:18:38.532Z,4.97
2022-09-05T08:20:51.974Z,4.47
2022-09-05T08:23:05.495Z,4.72
2022-09-05T08:25:18.250Z,5.18
2022-09-05T08:27:26.833Z,5.18
2022-09-05T08:29:35.591Z,4.38
2022-09-05T08:31:45.322Z,4.70
2022-09-05T08:33:53.303Z,4.78
2022-09-05T08:36:04.220Z,5.50
2022-09-05T08:38:09.822Z,5.07
2022-09-05T08:40:37.632Z,4.88
2022-09-05T08:44:39.427Z,4.78
2022-09-05T08:46:39.659Z,4.00
2022-09-05T08:47:55.946Z,4.93
2022-09-05T08:50:27.050Z,4.57
2022-09-05T08:52:41.841Z,4.07
2022-09-05T08:55:06.334Z,4.05
2022-09-05T08:57:20.378Z,4.25
2022-09-05T08:59:34.760Z,3.85
2022-09-05T09:02:11.603Z,4.25
2022-09-05T09:04:17.320Z,4.82
2022-09-05T09:06:57.982Z,4.60
2022-09-05T09:09:31.426Z,3.90
2022-09-05T09:11:40.118Z,4.03
2022-09-05T09:13:54.627Z,4.32
2022-09-05T09:16:06.750Z,4.55
2022-09-05T09:18:16.359Z,4.43
2022-09-05T09:20:37.574Z,3.70
2022-09-05T09:22:57.876Z,4.63
2022-09-05T09:25:15.986Z,4.05
2022-09-05T09:28:46.857Z,4.47
2022-09-05T09:30:00.065Z,4.00
2022-09-05T09:32:09.746Z,4.22
2022-09-05T09:34:50.638Z,3.78
2022-09-05T09:37:49.515Z,4.20
2022-09-05T09:40:28.571Z,3.50
2022-09-05T09:42:42.112Z,3.90
2022-09-05T09:45:28.589Z,4.55
2022-09-05T09:48:08.651Z,3.50
2022-09-05T09:50:30.909Z,4.07
2022-09-05T09:53:04.419Z,4.38
2022-09-05T09:55:48.696Z,4.43
2022-09-05T09:58:22.482Z,3.75
2022-09-05T10:00:38.505Z,4.15
2022-09-05T10:08:02.242Z,4.72
2022-09-05T10:10:49.410Z,4.25
2022-09-05T10:10:57.756Z,3.80
2022-09-05T10:11:55.555Z,4.30
2022-09-05T10:14:47.567Z,3.88
2022-09-05T10:17:13.453Z,4.05
2022-09-05T10:22:36.765Z,4.45
2022-09-05T10:25:21.067Z,4.15
2022-09-05T10:27:50.701Z,4.57
2022-09-05T10:35:10.121Z,4.50
2022-09-05T10:35:26.870Z,4.68
2022-09-05T10:37:41.743Z,4.00
2022-09-05T10:39:51.112Z,4.65
2022-09-05T10:42:03.137Z,4.30
2022-09-05T10:44:12.204Z,4.50
2022-09-05T10:49:00.592Z,4.32
2022-09-05T10:51:26.887Z,4.20
2022-09-05T10:53:42.447Z,3.78
2022-09-05T10:56:00.553Z,4.20
2022-09-05T10:58:22.082Z,4.10
2022-09-05T11:02:23.585Z,3.72
2022-09-05T11:03:24.946Z,3.78
2022-09-05T11:05:38.118Z,4.40
2022-09-05T11:07:49.486Z,4.03
2022-09-05T11:10:03.709Z,4.25
2022-09-05T11:12:23.637Z,4.63
2022-09-05T11:14:53.493Z,5.03
2022-09-05T11:17:10.382Z,4.10
2022-09-05T11:19:20.178Z,4.07
2022-09-05T11:23:41.085Z,4.05
2022-09-05T11:26:02.192Z,4.10
2022-09-05T11:28:15.086Z,4.30
2022-09-05T11:30:28.903Z,4.22
2022-09-05T11:39:38.083Z,4.00
2022-09-05T11:39:46.112Z,6.13
2022-09-05T11:39:56.072Z,4.60
2022-09-05T11:41:28.992Z,4.03
2022-09-05T11:44:26.992Z,4.50
2022-09-05T11:46:38.427Z,4.25
2022-09-05T11:49:13.975Z,4.57
2022-09-05T11:51:55.927Z,5.90
2022-09-05T11:54:37.077Z,5.05
2022-09-05T11:57:32.658Z,4.10
2022-09-05T12:00:33.041Z,5.30
2022-09-05T12:03:41.390Z,5.30
2022-09-05T12:06:07.727Z,4.90
2022-09-05T12:08:26.286Z,4.70
2022-09-05T12:10:48.290Z,4.53
2022-09-05T12:13:09.948Z,4.75
2022-09-05T12:15:34.153Z,4.63
2022-09-05T12:17:50.079Z,4.60
2022-09-05T12:20:01.394Z,4.57
2022-09-05T12:22:23.791Z,4.40
2022-09-05T12:25:25.137Z,4.20
2022-09-05T12:29:48.591Z,3.92
2022-09-05T12:32:50.347Z,4.40
2022-09-05T12:36:12.859Z,3.88
2022-09-05T12:40:55.442Z,4.18
2022-09-05T12:40:56.293Z,4.60
2022-09-05T12:41:41.714Z,4.45
2022-09-05T12:42:24.079Z,4.13
2022-09-05T12:44:47.105Z,4.40
2022-09-05T12:49:07.676Z,4.00
2022-09-05T12:51:46.869Z,4.57
2022-09-05T12:53:47.867Z,3.97
2022-09-05T12:56:59.658Z,4.03
2022-09-05T13:02:57.088Z,4.25
2022-09-05T13:03:08.221Z,3.80
2022-09-05T13:03:28.252Z,4.15
2022-09-05T13:05:52.780Z,4.30
2022-09-05T13:07:59.366Z,4.18
2022-09-05T13:12:26.170Z,3.72
2022-09-05T13:14:59.080Z,4.20
2022-09-05T13:15:23.560Z,4.30
2022-09-05T13:17:44.245Z,4.30
2022-09-05T13:19:52.475Z,4.07
2022-09-05T13:21:59.513Z,4.10
2022-09-05T13:24:10.161Z,4.20
2022-09-05T13:26:18.149Z,4.18
2022-09-05T13:28:25.495Z,4.63
2022-09-05T13:31:26.189Z,3.97
2022-09-05T13:38:04.871Z,4.40
2022-09-05T13:38:05.046Z,4.00
2022-09-05T13:38:35.899Z,4.28
2022-09-05T13:40:38.665Z,5.35
2022-09-05T13:42:46.886Z,4.10
2022-09-05T13:44:55.812Z,3.85
2022-09-05T13:47:07.661Z,3.97
2022-09-05T13:49:37.434Z,4.68
2022-09-05T13:51:49.800Z,4.15
2022-09-05T13:54:16.526Z,3.95
2022-09-05T13:56:27.205Z,4.22
2022-09-05T13:58:45.305Z,3.67
2022-09-05T14:01:27.835Z,4.05
2022-09-05T14:03:59.002Z,4.40
2022-09-05T14:06:47.783Z,4.60
2022-09-05T14:11:51.014Z,3.88
2022-09-05T14:14:11.075Z,4.00
2022-09-05T14:16:25.892Z,4.35
2022-09-05T14:18:55.726Z,4.15
2022-09-05T14:21:16.372Z,4.03
2022-09-05T14:23:24.935Z,4.28
2022-09-05T14:25:31.268Z,4.50
2022-09-05T14:27:36.851Z,4.38
2022-09-05T14:29:46.745Z,3.85
2022-09-05T14:36:34.821Z,3.83
2022-09-05T14:37:43.566Z,3.97
2022-09-05T14:37:52.010Z,3.47
2022-09-05T14:40:30.536Z,3.90
2022-09-05T14:43:07.362Z,3.72
2022-09-05T14:45:40.711Z,4.18
2022-09-05T14:48:30.163Z,3.95
2022-09-05T14:55:26.614Z,3.85
2022-09-05T15:02:47.776Z,3.92
2022-09-05T15:02:47.895Z,3.78
2022-09-05T15:02:49.281Z,3.83
2022-09-05T15:04:57.450Z,3.90
2022-09-05T15:07:09.419Z,4.30
2022-09-05T15:12:23.268Z,3.92
2022-09-05T15:14:10.376Z,3.95
2022-09-05T15:16:16.836Z,3.80
2022-09-05T15:18:26.272Z,4.22
2022-09-05T15:20:37.224Z,3.83
2022-09-05T15:22:43.197Z,4.20
2022-09-05T15:25:16.757Z,4.03
2022-09-05T15:27:22.306Z,4.43
2022-09-05T15:29:28.413Z,3.97
2022-09-05T15:31:32.939Z,4.05
2022-09-05T15:33:40.887Z,4.95
2022-09-05T15:35:46.739Z,4.78
2022-09-05T15:37:51.253Z,3.95
2022-09-05T15:40:07.710Z,4.22
2022-09-05T15:42:32.635Z,4.25
2022-09-05T15:44:53.200Z,4.10
2022-09-05T15:47:07.841Z,4.20
2022-09-05T15:49:25.896Z,4.57
2022-09-05T15:51:46.233Z,4.85
2022-09-05T15:53:53.207Z,5.28
2022-09-05T15:56:14.750Z,4.88
2022-09-05T15:58:20.781Z,5.05
2022-09-05T16:00:44.622Z,6.40
2022-09-05T16:02:59.620Z,4.63
2022-09-05T16:10:33.646Z,4.10
2022-09-05T16:10:35.964Z,3.85
2022-09-05T16:10:37.267Z,5.07
2022-09-05T16:12:47.246Z,6.20
2022-09-05T16:15:58.527Z,8.82
2022-09-05T16:23:17.947Z,5.80
2022-09-05T16:23:19.630Z,9.87
2022-09-05T16:23:32.906Z,6.47
2022-09-05T16:24:59.674Z,5.80
2022-09-05T16:27:07.267Z,8.63
2022-09-05T16:29:25.948Z,4.88
2022-09-05T16:31:38.635Z,4.95
2022-09-05T16:33:44.321Z,5.28
2022-09-05T16:35:55.237Z,5.32
2022-09-05T16:38:08.736Z,5.20
2022-09-05T16:40:21.082Z,5.43
2022-09-05T16:42:46.640Z,5.30
2022-09-05T16:44:59.668Z,6.72
2022-09-05T16:47:13.254Z,6.68
2022-09-05T16:49:41.857Z,9.50
2022-09-05T16:51:50.614Z,6.50
2022-09-05T16:53:59.504Z,5.10
2022-09-05T16:56:09.454Z,7.28
2022-09-05T16:58:16.708Z,5.72
2022-09-05T17:00:22.538Z,6.10
2022-09-05T17:02:30.040Z,5.57
2022-09-05T17:05:03.146Z,5.43
2022-09-05T17:07:24.502Z,5.57
2022-09-05T17:09:30.280Z,4.80
2022-09-05T17:11:41.938Z,4.85
2022-09-05T17:14:09.519Z,5.00
2022-09-05T17:16:21.175Z,5.22
2022-09-05T17:18:31.813Z,5.43
2022-09-05T17:20:38.403Z,5.18
2022-09-05T17:29:20.446Z,5.18
2022-09-05T17:29:23.471Z,4.90
2022-09-05T17:29:25.564Z,5.07
2022-09-05T17:32:52.512Z,5.25
2022-09-05T17:35:21.959Z,5.20
2022-09-05T17:37:53.451Z,5.28
2022-09-05T17:40:57.380Z,4.75
2022-09-05T17:43:04.879Z,4.63
2022-09-05T17:45:18.146Z,4.20
2022-09-05T17:47:36.315Z,4.45
2022-09-05T17:49:45.302Z,4.18
2022-09-05T17:52:23.029Z,5.07
2022-09-05T17:54:30.342Z,5.00
2022-09-05T17:56:37.298Z,4.43
2022-09-05T17:59:02.732Z,4.78
2022-09-05T18:01:18.947Z,4.35
2022-09-05T18:04:16.945Z,4.65
2022-09-05T18:06:40.232Z,4.30
2022-09-05T18:08:52.973Z,5.07
2022-09-05T18:11:08.900Z,6.55
2022-09-05T18:16:10.842Z,5.78
2022-09-05T18:19:28.891Z,5.00
2022-09-05T18:21:21.073Z,5.28
2022-09-05T18:23:54.769Z,5.80
2022-09-05T18:26:03.484Z,5.72
2022-09-05T18:28:22.687Z,6.65
2022-09-05T18:30:33.178Z,7.47
2022-09-05T18:32:48.037Z,5.93
2022-09-05T18:35:37.542Z,5.90
2022-09-05T18:38:17.271Z,6.85
2022-09-05T18:40:53.502Z,7.18
2022-09-05T18:43:09.873Z,6.80
2022-09-05T18:45:28.302Z,7.15
2022-09-05T18:47:53.016Z,6.88
2022-09-05T18:50:25.670Z,7.45
2022-09-05T18:52:29.737Z,7.10
2022-09-05T18:54:35.726Z,7.60
2022-09-05T18:57:19.863Z,7.10
2022-09-05T18:59:17.002Z,6.78
2022-09-05T19:01:34.536Z,6.90
2022-09-05T19:03:44.161Z,7.28
2022-09-05T19:06:35.192Z,7.43
2022-09-05T19:08:28.738Z,7.07
2022-09-05T19:10:54.167Z,7.55
2022-09-05T19:13:12.184Z,6.75
2022-09-05T19:15:24.688Z,6.90
2022-09-05T19:17:38.235Z,7.18
2022-09-05T19:20:32.223Z,6.53
2022-09-05T19:23:09.969Z,7.00
2022-09-05T19:25:30.531Z,7.40
2022-09-05T19:31:31.689Z,6.85
2022-09-05T19:36:51.769Z,6.22
2022-09-05T19:36:56.452Z,8.15
2022-09-05T19:37:08.885Z,7.35
2022-09-05T19:37:25.476Z,7.45
2022-09-05T19:44:28.233Z,6.45
2022-09-05T19:47:26.061Z,6.65
2022-09-05T19:47:39.305Z,7.63
2022-09-05T19:47:47.966Z,7.68
2022-09-05T19:49:31.347Z,6.60
2022-09-05T19:51:36.421Z,7.43
2022-09-05T19:53:48.879Z,7.70
2022-09-05T19:56:06.234Z,7.30
2022-09-05T19:58:19.439Z,8.20
2022-09-05T20:00:26.811Z,7.38
2022-09-05T20:02:34.367Z,7.68
2022-09-05T20:04:46.995Z,7.70
2022-09-05T20:06:55.449Z,6.15
2022-09-05T20:09:14.654Z,9.02
2022-09-05T20:11:45.178Z,7.40
2022-09-05T20:13:50.250Z,7.15
2022-09-05T20:15:54.884Z,8.25
2022-09-05T20:18:20.492Z,8.27
2022-09-05T20:20:26.730Z,7.63
2022-09-05T20:22:47.705Z,7.30
2022-09-05T20:24:55.475Z,8.15
2022-09-05T20:27:00.141Z,8.50
2022-09-05T20:29:08.755Z,8.15
2022-09-05T20:31:19.393Z,8.98
2022-09-05T20:33:27.948Z,7.00
2022-09-05T20:37:55.882Z,7.47
2022-09-05T20:43:23.026Z,6.63
2022-09-05T20:43:30.343Z,8.38
2022-09-05T20:43:31.465Z,8.77
2022-09-05T20:45:44.677Z,9.15
2022-09-05T20:54:12.984Z,8.73
2022-09-05T20:54:22.574Z,8.07
2022-09-05T20:55:38.451Z,7.35
2022-09-05T20:57:45.478Z,8.52
2022-09-05T20:59:50.514Z,7.38
2022-09-05T21:02:00.604Z,7.68
2022-09-05T21:06:27.657Z,8.05
2022-09-05T21:08:34.744Z,9.15
2022-09-05T21:10:55.132Z,9.35
2022-09-05T21:13:02.432Z,9.30
2022-09-05T21:15:28.342Z,9.00
2022-09-05T21:17:36.356Z,8.70
2022-09-05T21:19:41.669Z,7.75
2022-09-05T21:22:03.488Z,9.25
2022-09-05T21:24:17.941Z,7.85
2022-09-05T21:26:25.404Z,8.25
2022-09-05T21:28:37.345Z,8.50
2022-09-05T21:30:46.561Z,7.60
2022-09-05T21:32:51.411Z,7.43
2022-09-05T21:34:56.136Z,6.93
2022-09-05T21:37:07.480Z,6.53
2022-09-05T21:39:12.524Z,7.80
2022-09-05T21:41:18.171Z,6.85
2022-09-05T21:47:34.258Z,7.13
2022-09-05T21:47:40.323Z,6.80
2022-09-05T21:48:15.556Z,7.28
2022-09-05T21:50:31.677Z,6.72
2022-09-05T21:52:45.085Z,6.70
2022-09-05T21:59:22.543Z,7.10
2022-09-05T21:59:29.711Z,6.93
2022-09-05T22:00:07.149Z,6.70
2022-09-05T22:02:22.186Z,6.93
2022-09-05T22:04:26.961Z,7.00
2022-09-05T22:06:33.102Z,6.90
2022-09-05T22:08:40.325Z,7.68
2022-09-05T22:10:52.286Z,8.15
2022-09-05T22:12:57.806Z,8.20
2022-09-05T22:15:26.783Z,7.93
2022-09-05T22:17:28.488Z,7.13
2022-09-05T22:19:37.796Z,8.25
2022-09-05T22:21:45.455Z,7.68
2022-09-05T22:23:57.069Z,7.95
2022-09-05T22:26:05.809Z,7.82
2022-09-05T22:28:16.145Z,8.40
2022-09-05T22:30:20.816Z,8.05
2022-09-05T22:32:34.669Z,6.88
2022-09-05T22:34:40.185Z,7.22
2022-09-05T22:36:44.757Z,6.78
2022-09-05T22:38:51.036Z,8.48
2022-09-05T22:40:58.138Z,7.63
2022-09-05T22:43:04.510Z,7.50
2022-09-05T22:45:10.246Z,7.32
2022-09-05T22:47:14.792Z,7.57
2022-09-05T22:49:19.389Z,7.50
2022-09-05T22:51:24.521Z,7.35
2022-09-05T22:53:28.916Z,8.25
2022-09-05T22:55:35.289Z,7.88
2022-09-05T22:57:40.906Z,8.05
2022-09-05T22:59:45.516Z,8.15
2022-09-05T23:01:51.373Z,8.95
2022-09-05T23:03:55.788Z,8.40
2022-09-05T23:06:04.049Z,7.57
2022-09-05T23:08:08.944Z,8.65
2022-09-05T23:10:13.601Z,7.90
2022-09-05T23:12:19.516Z,8.48
2022-09-05T23:14:23.892Z,8.52
2022-09-05T23:16:28.389Z,8.65
2022-09-05T23:18:33.930Z,9.38
2022-09-05T23:20:38.426Z,8.57
2022-09-05T23:22:43.260Z,8.48
2022-09-05T23:24:47.974Z,8.38
2022-09-05T23:26:52.581Z,8.50
2022-09-05T23:28:58.957Z,8.57
2022-09-05T23:31:04.891Z,7.85
2022-09-05T23:33:11.872Z,7.60
2022-09-05T23:35:17.576Z,8.90
2022-09-05T23:37:21.940Z,8.63
2022-09-05T23:39:26.736Z,8.20
2022-09-05T23:41:31.439Z,7.32
2022-09-05T23:43:36.178Z,7.70
2022-09-05T23:45:42.164Z,7.75
2022-09-05T23:47:46.581Z,7.30
2022-09-05T23:49:51.068Z,7.72
2022-09-05T23:51:56.351Z,9.07
2022-09-05T23:54:01.013Z,7.32
2022-09-05T23:56:07.578Z,7.93
2022-09-05T23:58:13.040Z,7.25
